createdAt,value
2023-02-17T00:08:58.280Z,100.00
2023-02-17T00:24:01.411Z,100.00
2023-02-17T00:39:06.660Z,100.00
2023-02-17T00:54:09.826Z,100.00
2023-02-17T01:09:14.896Z,100.00
2023-02-17T01:24:18.136Z,100.00
2023-02-17T01:39:21.372Z,100.00
2023-02-17T01:54:35.661Z,100.00
2023-02-17T02:09:43.316Z,100.00
2023-02-17T02:25:23.432Z,100.00
2023-02-17T02:40:32.387Z,100.00
2023-02-17T02:55:56.062Z,100.00
2023-02-17T03:11:01.070Z,100.00
2023-02-17T03:26:13.076Z,100.00
2023-02-17T03:41:34.059Z,100.00
2023-02-17T03:56:37.855Z,100.00
2023-02-17T04:11:41.658Z,100.00
2023-02-17T04:26:45.374Z,100.00
2023-02-17T04:41:49.593Z,100.00
2023-02-17T04:56:52.782Z,100.00
2023-02-17T05:11:56.056Z,100.00
2023-02-17T05:26:59.388Z,100.00
2023-02-17T05:42:02.673Z,100.00
2023-02-17T05:57:05.957Z,100.00
2023-02-17T06:12:09.161Z,100.00
2023-02-17T06:27:12.681Z,100.00
2023-02-17T06:42:16.852Z,100.00
2023-02-17T06:57:20.184Z,100.00
2023-02-17T07:12:23.399Z,100.00
2023-02-17T07:27:26.821Z,100.00
2023-02-17T07:42:30.358Z,100.00
2023-02-17T07:57:33.439Z,100.00
2023-02-17T08:12:55.090Z,100.00
2023-02-17T08:27:59.041Z,100.00
2023-02-17T08:43:03.589Z,100.00
2023-02-17T08:58:07.257Z,100.00
2023-02-17T09:13:10.548Z,100.00
2023-02-17T09:28:16.696Z,100.00
2023-02-17T09:43:26.975Z,100.00
2023-02-17T09:58:38.941Z,100.00
2023-02-17T10:13:44.956Z,100.00
2023-02-17T10:29:01.746Z,100.00
2023-02-17T10:44:20.225Z,100.00
2023-02-17T10:59:45.361Z,100.00
2023-02-17T11:14:52.125Z,100.00
2023-02-17T11:30:15.005Z,100.00
2023-02-17T11:45:23.967Z,100.00
2023-02-17T12:00:46.818Z,100.00
2023-02-17T12:16:12.992Z,100.00
2023-02-17T12:31:16.960Z,100.00
2023-02-17T12:46:39.942Z,100.00
2023-02-17T13:01:52.930Z,100.00
2023-02-17T13:16:56.559Z,100.00
2023-02-17T13:32:04.132Z,100.00
2023-02-17T13:47:26.342Z,100.00
2023-02-17T14:02:36.059Z,100.00
2023-02-17T14:17:41.797Z,100.00
2023-02-17T14:32:45.269Z,100.00
2023-02-17T14:47:48.648Z,100.00
2023-02-17T15:02:52.888Z,100.00
2023-02-17T15:17:56.259Z,100.00
2023-02-17T15:32:59.851Z,100.00
2023-02-17T15:48:05.288Z,100.00
2023-02-17T16:03:12.558Z,100.00
2023-02-17T16:18:23.875Z,100.00
2023-02-17T16:33:27.161Z,100.00
2023-02-17T16:48:34.615Z,100.00
2023-02-17T17:03:38.052Z,100.00
2023-02-17T17:18:42.152Z,100.00
2023-02-17T17:33:46.676Z,100.00
2023-02-17T17:48:55.659Z,100.00
2023-02-17T18:04:02.266Z,100.00
2023-02-17T18:19:07.728Z,100.00
2023-02-17T18:34:11.946Z,100.00
2023-02-17T18:49:15.169Z,100.00
2023-02-17T19:04:18.470Z,100.00
2023-02-17T19:19:21.974Z,100.00
2023-02-17T19:34:25.857Z,100.00
2023-02-17T19:49:29.311Z,100.00
2023-02-17T20:04:33.133Z,100.00
2023-02-17T20:19:40.148Z,100.00
2023-02-17T20:34:44.626Z,100.00
2023-02-17T20:49:48.960Z,99.66
2023-02-17T21:04:53.466Z,96.89
2023-02-17T21:20:07.505Z,94.89
2023-02-17T21:35:12.454Z,92.81
2023-02-17T21:50:28.639Z,84.59
2023-02-17T22:05:57.641Z,77.59
2023-02-17T22:21:47.295Z,75.95
2023-02-17T22:37:12.572Z,77.26
2023-02-17T22:53:06.348Z,74.11
2023-02-17T23:08:38.201Z,71.96
2023-02-17T23:23:41.873Z,71.58
2023-02-17T23:38:56.761Z,70.82
2023-02-17T23:54:18.057Z,70.26
